In Rescue
 
Open Full Screen Window  High Contrast Mode
Wind Gusting 00 knots
05
May 20, 2019 2:40 PM CDT
Weather Information
Wind Direction
  110 °
Wind Speed
  05 kt (6 mph)
Wind Gust
  00 kt (0 mph)
Altimeter
30.14 in
Visibility
10 SM
Temperature
13° C
55° F
Dewpoint
03° C
37° F
Humidity
51%
1hr Rain Fall
00.01 in.
24hr Rain Fall
00.02 in.
Sky Condition
Scattered @ 4,900 ft
VFR

METAR KPQN 201940Z AUTO 11005KT 10SM SCT049 13/03 A3014 RMK AO2 P0001

FAA Disclaimer: The data displayed is for advisory purposes only and is not to be used for flight planning or operations.